sensor_id;sensor_type;location;lat;lon;timestamp;temperature;humidity
14119;DHT22;7138;49.246;9.100;2023-03-11T00:01:54;2.40;99.90
14119;DHT22;7138;49.246;9.100;2023-03-11T00:04:20;2.40;99.90
14119;DHT22;7138;49.246;9.100;2023-03-11T00:06:46;2.50;99.90
14119;DHT22;7138;49.246;9.100;2023-03-11T00:09:13;2.60;99.90
14119;DHT22;7138;49.246;9.100;2023-03-11T00:11:39;2.60;99.90
14119;DHT22;7138;49.246;9.100;2023-03-11T00:14:05;2.60;99.90
14119;DHT22;7138;49.246;9.100;2023-03-11T00:16:31;2.60;99.90
14119;DHT22;7138;49.246;9.100;2023-03-11T00:18:57;2.40;99.90
14119;DHT22;7138;49.246;9.100;2023-03-11T00:21:22;2.30;99.90
14119;DHT22;7138;49.246;9.100;2023-03-11T00:23:48;2.20;99.90
14119;DHT22;7138;49.246;9.100;2023-03-11T00:26:16;2.20;99.90
14119;DHT22;7138;49.246;9.100;2023-03-11T00:28:41;2.00;99.90
14119;DHT22;7138;49.246;9.100;2023-03-11T00:31:07;1.80;99.90
14119;DHT22;7138;49.246;9.100;2023-03-11T00:33:35;1.70;99.90
14119;DHT22;7138;49.246;9.100;2023-03-11T00:36:01;1.60;99.90
14119;DHT22;7138;49.246;9.100;2023-03-11T00:38:27;1.60;99.90
14119;DHT22;7138;49.246;9.100;2023-03-11T00:40:52;1.60;99.90
14119;DHT22;7138;49.246;9.100;2023-03-11T00:43:20;1.50;99.90
14119;DHT22;7138;49.246;9.100;2023-03-11T00:45:45;1.50;99.90
14119;DHT22;7138;49.246;9.100;2023-03-11T00:48:12;1.50;99.90
14119;DHT22;7138;49.246;9.100;2023-03-11T00:50:40;1.50;99.90
14119;DHT22;7138;49.246;9.100;2023-03-11T00:53:06;1.40;99.90
14119;DHT22;7138;49.246;9.100;2023-03-11T00:55:33;1.40;99.90
14119;DHT22;7138;49.246;9.100;2023-03-11T00:58:00;1.40;99.90
14119;DHT22;7138;49.246;9.100;2023-03-11T01:00:30;1.30;99.90
14119;DHT22;7138;49.246;9.100;2023-03-11T01:02:58;1.20;99.90
14119;DHT22;7138;49.246;9.100;2023-03-11T01:05:27;1.20;99.90
14119;DHT22;7138;49.246;9.100;2023-03-11T01:07:54;1.10;99.90
14119;DHT22;7138;49.246;9.100;2023-03-11T01:10:20;1.20;99.90
14119;DHT22;7138;49.246;9.100;2023-03-11T01:12:46;1.00;99.90
14119;DHT22;7138;49.246;9.100;2023-03-11T01:15:16;1.00;99.90
14119;DHT22;7138;49.246;9.100;2023-03-11T01:17:45;1.00;99.90
14119;DHT22;7138;49.246;9.100;2023-03-11T01:20:11;0.90;99.90
14119;DHT22;7138;49.246;9.100;2023-03-11T01:22:37;0.90;99.90
14119;DHT22;7138;49.246;9.100;2023-03-11T01:25:04;0.70;99.90
14119;DHT22;7138;49.246;9.100;2023-03-11T01:27:30;0.70;99.90
14119;DHT22;7138;49.246;9.100;2023-03-11T01:29:56;0.70;99.90
14119;DHT22;7138;49.246;9.100;2023-03-11T01:32:22;0.60;99.90
14119;DHT22;7138;49.246;9.100;2023-03-11T01:34:49;0.50;99.90
14119;DHT22;7138;49.246;9.100;2023-03-11T01:37:15;0.50;99.90
14119;DHT22;7138;49.246;9.100;2023-03-11T01:39:41;0.50;99.90
14119;DHT22;7138;49.246;9.100;2023-03-11T01:42:06;0.50;99.90
14119;DHT22;7138;49.246;9.100;2023-03-11T01:44:32;0.50;99.90
14119;DHT22;7138;49.246;9.100;2023-03-11T01:47:32;0.50;99.90
14119;DHT22;7138;49.246;9.100;2023-03-11T01:50:01;0.40;99.90
14119;DHT22;7138;49.246;9.100;2023-03-11T01:52:30;0.30;99.90
14119;DHT22;7138;49.246;9.100;2023-03-11T01:54:56;0.20;99.90
14119;DHT22;7138;49.246;9.100;2023-03-11T01:57:22;0.30;99.90
14119;DHT22;7138;49.246;9.100;2023-03-11T01:59:50;0.40;99.90
14119;DHT22;7138;49.246;9.100;2023-03-11T02:02:24;0.30;99.90
14119;DHT22;7138;49.246;9.100;2023-03-11T02:04:53;0.40;99.90
14119;DHT22;7138;49.246;9.100;2023-03-11T02:07:21;0.40;99.90
14119;DHT22;7138;49.246;9.100;2023-03-11T02:09:46;0.40;99.90
14119;DHT22;7138;49.246;9.100;2023-03-11T02:12:14;0.40;99.90
14119;DHT22;7138;49.246;9.100;2023-03-11T02:14:42;0.40;99.90
14119;DHT22;7138;49.246;9.100;2023-03-11T02:17:11;0.30;99.90
14119;DHT22;7138;49.246;9.100;2023-03-11T02:19:50;0.30;99.90
14119;DHT22;7138;49.246;9.100;2023-03-11T02:22:28;0.30;99.90
14119;DHT22;7138;49.246;9.100;2023-03-11T02:25:02;0.30;99.90
14119;DHT22;7138;49.246;9.100;2023-03-11T02:27:34;0.30;99.90
14119;DHT22;7138;49.246;9.100;2023-03-11T02:30:04;0.30;99.90
14119;DHT22;7138;49.246;9.100;2023-03-11T02:32:32;0.40;99.90
14119;DHT22;7138;49.246;9.100;2023-03-11T02:34:58;0.30;99.90
14119;DHT22;7138;49.246;9.100;2023-03-11T02:37:24;0.50;99.90
14119;DHT22;7138;49.246;9.100;2023-03-11T02:39:52;0.60;99.90
14119;DHT22;7138;49.246;9.100;2023-03-11T02:42:22;0.60;99.90
14119;DHT22;7138;49.246;9.100;2023-03-11T02:44:56;0.70;99.90
14119;DHT22;7138;49.246;9.100;2023-03-11T02:47:25;0.70;99.90
14119;DHT22;7138;49.246;9.100;2023-03-11T02:49:53;0.70;99.90
14119;DHT22;7138;49.246;9.100;2023-03-11T02:52:21;0.60;99.90
14119;DHT22;7138;49.246;9.100;2023-03-11T02:54:49;0.60;99.90
14119;DHT22;7138;49.246;9.100;2023-03-11T02:57:15;0.70;99.90
14119;DHT22;7138;49.246;9.100;2023-03-11T02:59:40;0.70;99.90
14119;DHT22;7138;49.246;9.100;2023-03-11T03:02:08;0.70;99.90
14119;DHT22;7138;49.246;9.100;2023-03-11T03:04:33;0.70;99.90
14119;DHT22;7138;49.246;9.100;2023-03-11T03:06:59;0.70;99.90
14119;DHT22;7138;49.246;9.100;2023-03-11T03:09:25;0.70;99.90
14119;DHT22;7138;49.246;9.100;2023-03-11T03:11:51;0.70;99.90
14119;DHT22;7138;49.246;9.100;2023-03-11T03:14:17;0.70;99.90
14119;DHT22;7138;49.246;9.100;2023-03-11T03:16:43;0.70;99.90
14119;DHT22;7138;49.246;9.100;2023-03-11T03:19:10;0.70;99.90
14119;DHT22;7138;49.246;9.100;2023-03-11T03:21:35;0.70;99.90
14119;DHT22;7138;49.246;9.100;2023-03-11T03:24:01;0.70;99.90
14119;DHT22;7138;49.246;9.100;2023-03-11T03:26:28;0.70;99.90
14119;DHT22;7138;49.246;9.100;2023-03-11T03:28:53;0.60;99.90
14119;DHT22;7138;49.246;9.100;2023-03-11T03:31:19;0.60;99.90
14119;DHT22;7138;49.246;9.100;2023-03-11T03:33:45;0.60;99.90
14119;DHT22;7138;49.246;9.100;2023-03-11T03:36:14;0.60;99.90
14119;DHT22;7138;49.246;9.100;2023-03-11T03:38:40;0.50;99.90
14119;DHT22;7138;49.246;9.100;2023-03-11T03:41:06;0.60;99.90
14119;DHT22;7138;49.246;9.100;2023-03-11T03:43:33;0.60;99.90
14119;DHT22;7138;49.246;9.100;2023-03-11T03:46:00;0.50;99.90
14119;DHT22;7138;49.246;9.100;2023-03-11T03:48:29;0.60;99.90
14119;DHT22;7138;49.246;9.100;2023-03-11T03:50:55;0.50;99.90
14119;DHT22;7138;49.246;9.100;2023-03-11T03:53:23;0.50;99.90
14119;DHT22;7138;49.246;9.100;2023-03-11T03:55:49;0.60;99.90
14119;DHT22;7138;49.246;9.100;2023-03-11T03:58:15;0.60;99.90
14119;DHT22;7138;49.246;9.100;2023-03-11T04:00:41;0.60;99.90
14119;DHT22;7138;49.246;9.100;2023-03-11T04:03:07;0.50;99.90
14119;DHT22;7138;49.246;9.100;2023-03-11T04:05:32;0.50;99.90
14119;DHT22;7138;49.246;9.100;2023-03-11T04:07:58;0.50;99.90
14119;DHT22;7138;49.246;9.100;2023-03-11T04:10:26;0.40;99.90
14119;DHT22;7138;49.246;9.100;2023-03-11T04:12:52;0.30;99.90
14119;DHT22;7138;49.246;9.100;2023-03-11T04:15:18;0.20;99.90
14119;DHT22;7138;49.246;9.100;2023-03-11T04:17:44;0.20;99.90
14119;DHT22;7138;49.246;9.100;2023-03-11T04:20:10;0.10;99.90
14119;DHT22;7138;49.246;9.100;2023-03-11T04:22:36;0.00;99.90
14119;DHT22;7138;49.246;9.100;2023-03-11T04:25:03;0.00;99.90
14119;DHT22;7138;49.246;9.100;2023-03-11T04:27:30;-0.10;99.90
14119;DHT22;7138;49.246;9.100;2023-03-11T04:29:56;-0.20;99.90
14119;DHT22;7138;49.246;9.100;2023-03-11T04:32:22;-0.20;99.90
14119;DHT22;7138;49.246;9.100;2023-03-11T04:34:48;-0.30;99.90
14119;DHT22;7138;49.246;9.100;2023-03-11T04:37:13;-0.30;99.90
14119;DHT22;7138;49.246;9.100;2023-03-11T04:39:39;-0.40;99.90
14119;DHT22;7138;49.246;9.100;2023-03-11T04:42:05;-0.40;99.90
14119;DHT22;7138;49.246;9.100;2023-03-11T04:44:33;-0.40;99.90
14119;DHT22;7138;49.246;9.100;2023-03-11T04:47:00;-0.40;99.90
14119;DHT22;7138;49.246;9.100;2023-03-11T04:49:26;-0.40;99.90
14119;DHT22;7138;49.246;9.100;2023-03-11T04:51:51;-0.40;99.90
14119;DHT22;7138;49.246;9.100;2023-03-11T04:54:17;-0.50;99.90
14119;DHT22;7138;49.246;9.100;2023-03-11T04:56:43;-0.50;99.90
14119;DHT22;7138;49.246;9.100;2023-03-11T04:59:09;-0.50;99.90
14119;DHT22;7138;49.246;9.100;2023-03-11T05:01:36;-0.50;99.90
14119;DHT22;7138;49.246;9.100;2023-03-11T05:04:02;-0.50;99.90
14119;DHT22;7138;49.246;9.100;2023-03-11T05:06:28;-0.50;99.90
14119;DHT22;7138;49.246;9.100;2023-03-11T05:08:54;-0.60;99.90
14119;DHT22;7138;49.246;9.100;2023-03-11T05:11:20;-0.50;99.90
14119;DHT22;7138;49.246;9.100;2023-03-11T05:13:45;-0.40;99.90
14119;DHT22;7138;49.246;9.100;2023-03-11T05:16:11;-0.40;99.90
14119;DHT22;7138;49.246;9.100;2023-03-11T05:18:38;-0.40;99.90
14119;DHT22;7138;49.246;9.100;2023-03-11T05:21:04;-0.30;99.90
14119;DHT22;7138;49.246;9.100;2023-03-11T05:23:30;-0.40;99.90
14119;DHT22;7138;49.246;9.100;2023-03-11T05:25:56;-0.40;99.90
14119;DHT22;7138;49.246;9.100;2023-03-11T05:28:22;-0.50;99.90
14119;DHT22;7138;49.246;9.100;2023-03-11T05:30:48;-0.50;99.90
14119;DHT22;7138;49.246;9.100;2023-03-11T05:33:14;-0.50;99.90
14119;DHT22;7138;49.246;9.100;2023-03-11T05:35:42;-0.50;99.90
14119;DHT22;7138;49.246;9.100;2023-03-11T05:38:08;-0.60;99.90
14119;DHT22;7138;49.246;9.100;2023-03-11T05:40:33;-0.60;99.90
14119;DHT22;7138;49.246;9.100;2023-03-11T05:42:59;-0.70;99.90
14119;DHT22;7138;49.246;9.100;2023-03-11T05:45:25;-0.60;99.90
14119;DHT22;7138;49.246;9.100;2023-03-11T05:47:51;-0.70;99.90
14119;DHT22;7138;49.246;9.100;2023-03-11T05:50:17;-0.60;99.90
14119;DHT22;7138;49.246;9.100;2023-03-11T05:52:44;-0.70;99.90
14119;DHT22;7138;49.246;9.100;2023-03-11T05:55:10;-0.70;99.90
14119;DHT22;7138;49.246;9.100;2023-03-11T05:57:36;-0.80;99.90
14119;DHT22;7138;49.246;9.100;2023-03-11T06:00:03;-0.70;99.90
14119;DHT22;7138;49.246;9.100;2023-03-11T06:02:31;-0.70;99.90
14119;DHT22;7138;49.246;9.100;2023-03-11T06:04:57;-0.80;99.90
14119;DHT22;7138;49.246;9.100;2023-03-11T06:07:23;-0.80;99.90
14119;DHT22;7138;49.246;9.100;2023-03-11T06:09:50;-0.80;99.90
14119;DHT22;7138;49.246;9.100;2023-03-11T06:12:16;-0.80;99.90
14119;DHT22;7138;49.246;9.100;2023-03-11T06:14:42;-0.80;99.90
14119;DHT22;7138;49.246;9.100;2023-03-11T06:17:08;-0.70;99.90
14119;DHT22;7138;49.246;9.100;2023-03-11T06:19:34;-0.20;99.90
14119;DHT22;7138;49.246;9.100;2023-03-11T06:22:00;-0.20;99.90
14119;DHT22;7138;49.246;9.100;2023-03-11T06:24:26;-0.40;99.90
14119;DHT22;7138;49.246;9.100;2023-03-11T06:26:54;-0.40;99.90
14119;DHT22;7138;49.246;9.100;2023-03-11T06:29:19;-0.20;99.90
14119;DHT22;7138;49.246;9.100;2023-03-11T06:31:48;-0.10;99.90
14119;DHT22;7138;49.246;9.100;2023-03-11T06:34:14;0.10;99.90
14119;DHT22;7138;49.246;9.100;2023-03-11T06:36:40;0.20;99.90
14119;DHT22;7138;49.246;9.100;2023-03-11T06:39:06;0.30;99.90
14119;DHT22;7138;49.246;9.100;2023-03-11T06:41:32;0.40;99.90
14119;DHT22;7138;49.246;9.100;2023-03-11T06:44:00;0.60;99.90
14119;DHT22;7138;49.246;9.100;2023-03-11T06:46:25;0.60;99.90
14119;DHT22;7138;49.246;9.100;2023-03-11T06:48:51;0.80;99.90
14119;DHT22;7138;49.246;9.100;2023-03-11T06:51:18;0.90;99.90
14119;DHT22;7138;49.246;9.100;2023-03-11T06:53:47;0.80;99.90
14119;DHT22;7138;49.246;9.100;2023-03-11T06:56:14;0.60;99.90
14119;DHT22;7138;49.246;9.100;2023-03-11T06:58:41;0.40;99.90
14119;DHT22;7138;49.246;9.100;2023-03-11T07:01:11;0.30;99.90
14119;DHT22;7138;49.246;9.100;2023-03-11T07:03:39;0.30;99.90
14119;DHT22;7138;49.246;9.100;2023-03-11T07:06:06;0.30;99.90
14119;DHT22;7138;49.246;9.100;2023-03-11T07:08:36;0.50;99.90
14119;DHT22;7138;49.246;9.100;2023-03-11T07:11:03;0.70;99.90
14119;DHT22;7138;49.246;9.100;2023-03-11T07:13:31;0.70;99.90
14119;DHT22;7138;49.246;9.100;2023-03-11T07:16:02;0.70;99.90
14119;DHT22;7138;49.246;9.100;2023-03-11T07:18:31;0.70;99.90
14119;DHT22;7138;49.246;9.100;2023-03-11T07:20:57;0.70;99.90
14119;DHT22;7138;49.246;9.100;2023-03-11T07:23:23;0.70;99.90
14119;DHT22;7138;49.246;9.100;2023-03-11T07:25:49;0.80;99.90
14119;DHT22;7138;49.246;9.100;2023-03-11T07:28:17;0.90;99.90
14119;DHT22;7138;49.246;9.100;2023-03-11T07:30:43;1.30;99.90
14119;DHT22;7138;49.246;9.100;2023-03-11T07:33:11;1.70;99.90
14119;DHT22;7138;49.246;9.100;2023-03-11T07:35:38;1.60;99.90
14119;DHT22;7138;49.246;9.100;2023-03-11T07:38:04;1.90;99.90
14119;DHT22;7138;49.246;9.100;2023-03-11T07:40:30;2.00;99.90
14119;DHT22;7138;49.246;9.100;2023-03-11T07:42:56;2.00;99.90
14119;DHT22;7138;49.246;9.100;2023-03-11T07:45:22;2.40;99.90
14119;DHT22;7138;49.246;9.100;2023-03-11T07:47:48;2.80;99.90
14119;DHT22;7138;49.246;9.100;2023-03-11T07:50:14;3.00;99.90
14119;DHT22;7138;49.246;9.100;2023-03-11T07:52:43;3.20;99.90
14119;DHT22;7138;49.246;9.100;2023-03-11T07:55:09;3.20;99.90
14119;DHT22;7138;49.246;9.100;2023-03-11T07:57:35;3.50;99.90
14119;DHT22;7138;49.246;9.100;2023-03-11T08:00:01;3.40;99.90
14119;DHT22;7138;49.246;9.100;2023-03-11T08:02:27;3.30;99.90
14119;DHT22;7138;49.246;9.100;2023-03-11T08:04:54;3.10;99.90
14119;DHT22;7138;49.246;9.100;2023-03-11T08:07:20;3.20;99.90
14119;DHT22;7138;49.246;9.100;2023-03-11T08:09:48;3.40;99.90
14119;DHT22;7138;49.246;9.100;2023-03-11T08:12:14;3.70;99.90
14119;DHT22;7138;49.246;9.100;2023-03-11T08:14:40;3.40;99.90
14119;DHT22;7138;49.246;9.100;2023-03-11T08:17:08;3.20;99.90
14119;DHT22;7138;49.246;9.100;2023-03-11T08:19:34;3.20;99.90
14119;DHT22;7138;49.246;9.100;2023-03-11T08:22:00;3.20;99.90
14119;DHT22;7138;49.246;9.100;2023-03-11T08:24:27;3.20;99.90
14119;DHT22;7138;49.246;9.100;2023-03-11T08:26:54;3.50;99.90
14119;DHT22;7138;49.246;9.100;2023-03-11T08:29:21;3.90;99.90
14119;DHT22;7138;49.246;9.100;2023-03-11T08:31:47;4.00;99.90
14119;DHT22;7138;49.246;9.100;2023-03-11T08:34:13;4.30;99.90
14119;DHT22;7138;49.246;9.100;2023-03-11T08:36:40;4.30;99.90
14119;DHT22;7138;49.246;9.100;2023-03-11T08:39:06;4.60;99.90
14119;DHT22;7138;49.246;9.100;2023-03-11T08:41:32;5.00;99.90
14119;DHT22;7138;49.246;9.100;2023-03-11T08:43:59;4.90;99.90
14119;DHT22;7138;49.246;9.100;2023-03-11T08:46:27;5.20;99.90
14119;DHT22;7138;49.246;9.100;2023-03-11T08:48:55;4.90;99.90
14119;DHT22;7138;49.246;9.100;2023-03-11T08:51:23;5.40;99.90
14119;DHT22;7138;49.246;9.100;2023-03-11T08:53:51;5.30;99.90
14119;DHT22;7138;49.246;9.100;2023-03-11T08:56:17;4.70;99.90
14119;DHT22;7138;49.246;9.100;2023-03-11T08:58:44;4.70;99.90
14119;DHT22;7138;49.246;9.100;2023-03-11T09:01:12;4.10;99.90
14119;DHT22;7138;49.246;9.100;2023-03-11T09:03:38;4.40;99.90
14119;DHT22;7138;49.246;9.100;2023-03-11T09:06:06;3.90;99.90
14119;DHT22;7138;49.246;9.100;2023-03-11T09:08:33;4.00;99.90
14119;DHT22;7138;49.246;9.100;2023-03-11T09:11:00;4.30;99.90
14119;DHT22;7138;49.246;9.100;2023-03-11T09:13:26;4.30;99.90
14119;DHT22;7138;49.246;9.100;2023-03-11T09:15:53;4.20;99.90
14119;DHT22;7138;49.246;9.100;2023-03-11T09:18:20;3.90;99.90
14119;DHT22;7138;49.246;9.100;2023-03-11T09:20:46;3.90;99.90
14119;DHT22;7138;49.246;9.100;2023-03-11T09:23:14;3.60;99.90
14119;DHT22;7138;49.246;9.100;2023-03-11T09:25:41;3.60;99.90
14119;DHT22;7138;49.246;9.100;2023-03-11T09:28:07;3.60;99.90
14119;DHT22;7138;49.246;9.100;2023-03-11T09:30:33;3.20;99.90
14119;DHT22;7138;49.246;9.100;2023-03-11T09:33:00;3.00;99.90
14119;DHT22;7138;49.246;9.100;2023-03-11T09:35:27;2.90;99.90
14119;DHT22;7138;49.246;9.100;2023-03-11T09:37:53;3.50;99.90
14119;DHT22;7138;49.246;9.100;2023-03-11T09:40:21;4.00;99.90
14119;DHT22;7138;49.246;9.100;2023-03-11T09:42:56;4.50;99.90
14119;DHT22;7138;49.246;9.100;2023-03-11T09:45:35;5.00;99.90
14119;DHT22;7138;49.246;9.100;2023-03-11T09:48:18;5.50;99.90
14119;DHT22;7138;49.246;9.100;2023-03-11T09:50:58;5.80;99.90
14119;DHT22;7138;49.246;9.100;2023-03-11T09:53:33;6.20;99.90
14119;DHT22;7138;49.246;9.100;2023-03-11T09:56:06;6.80;99.90
14119;DHT22;7138;49.246;9.100;2023-03-11T09:58:37;7.00;99.90
14119;DHT22;7138;49.246;9.100;2023-03-11T10:01:14;6.50;99.90
14119;DHT22;7138;49.246;9.100;2023-03-11T10:03:46;6.00;99.90
14119;DHT22;7138;49.246;9.100;2023-03-11T10:06:16;5.60;99.90
14119;DHT22;7138;49.246;9.100;2023-03-11T10:08:50;5.40;99.90
14119;DHT22;7138;49.246;9.100;2023-03-11T10:11:48;5.20;99.90
14119;DHT22;7138;49.246;9.100;2023-03-11T10:14:45;6.20;99.90
14119;DHT22;7138;49.246;9.100;2023-03-11T10:17:34;5.60;99.90
14119;DHT22;7138;49.246;9.100;2023-03-11T10:20:10;5.30;99.90
14119;DHT22;7138;49.246;9.100;2023-03-11T10:22:48;5.20;99.90
14119;DHT22;7138;49.246;9.100;2023-03-11T10:25:25;5.20;99.90
14119;DHT22;7138;49.246;9.100;2023-03-11T10:28:00;4.70;99.90
14119;DHT22;7138;49.246;9.100;2023-03-11T10:30:32;4.10;99.90
14119;DHT22;7138;49.246;9.100;2023-03-11T10:33:10;4.10;99.90
14119;DHT22;7138;49.246;9.100;2023-03-11T10:35:48;4.50;99.90
14119;DHT22;7138;49.246;9.100;2023-03-11T10:38:20;4.80;99.90
14119;DHT22;7138;49.246;9.100;2023-03-11T10:40:50;4.90;99.90
14119;DHT22;7138;49.246;9.100;2023-03-11T10:43:25;5.00;99.90
14119;DHT22;7138;49.246;9.100;2023-03-11T10:45:53;4.40;99.90
14119;DHT22;7138;49.246;9.100;2023-03-11T10:48:20;4.90;99.90
14119;DHT22;7138;49.246;9.100;2023-03-11T10:50:51;5.60;99.90
14119;DHT22;7138;49.246;9.100;2023-03-11T10:53:22;6.10;99.90
14119;DHT22;7138;49.246;9.100;2023-03-11T10:55:50;6.20;99.90
14119;DHT22;7138;49.246;9.100;2023-03-11T10:58:19;6.10;99.90
14119;DHT22;7138;49.246;9.100;2023-03-11T11:00:58;5.60;99.90
14119;DHT22;7138;49.246;9.100;2023-03-11T11:03:26;4.80;99.90
14119;DHT22;7138;49.246;9.100;2023-03-11T11:05:57;5.00;99.90
14119;DHT22;7138;49.246;9.100;2023-03-11T11:08:26;5.00;99.90
14119;DHT22;7138;49.246;9.100;2023-03-11T11:10:54;4.80;99.90
14119;DHT22;7138;49.246;9.100;2023-03-11T11:13:24;4.20;99.90
14119;DHT22;7138;49.246;9.100;2023-03-11T11:15:55;4.30;99.90
14119;DHT22;7138;49.246;9.100;2023-03-11T11:18:26;4.60;99.90
14119;DHT22;7138;49.246;9.100;2023-03-11T11:21:02;4.50;99.90
14119;DHT22;7138;49.246;9.100;2023-03-11T11:23:36;5.50;99.90
14119;DHT22;7138;49.246;9.100;2023-03-11T11:26:09;6.00;99.90
14119;DHT22;7138;49.246;9.100;2023-03-11T11:28:40;6.40;99.90
14119;DHT22;7138;49.246;9.100;2023-03-11T11:31:19;6.10;99.90
14119;DHT22;7138;49.246;9.100;2023-03-11T11:33:49;6.90;99.90
14119;DHT22;7138;49.246;9.100;2023-03-11T11:36:17;6.80;99.90
14119;DHT22;7138;49.246;9.100;2023-03-11T11:38:46;6.50;99.90
14119;DHT22;7138;49.246;9.100;2023-03-11T11:41:15;7.20;99.90
14119;DHT22;7138;49.246;9.100;2023-03-11T11:43:47;7.20;99.90
14119;DHT22;7138;49.246;9.100;2023-03-11T11:46:21;6.80;99.90
14119;DHT22;7138;49.246;9.100;2023-03-11T11:48:58;5.20;99.90
14119;DHT22;7138;49.246;9.100;2023-03-11T11:51:32;5.10;99.90
14119;DHT22;7138;49.246;9.100;2023-03-11T11:54:09;5.20;99.90
14119;DHT22;7138;49.246;9.100;2023-03-11T11:56:41;5.30;99.90
14119;DHT22;7138;49.246;9.100;2023-03-11T11:59:14;5.40;99.90
14119;DHT22;7138;49.246;9.100;2023-03-11T12:01:48;5.50;99.90
14119;DHT22;7138;49.246;9.100;2023-03-11T12:04:47;6.20;99.90
14119;DHT22;7138;49.246;9.100;2023-03-11T12:07:28;7.10;99.90
14119;DHT22;7138;49.246;9.100;2023-03-11T12:10:15;6.60;99.70
14119;DHT22;7138;49.246;9.100;2023-03-11T12:12:55;6.10;98.80
14119;DHT22;7138;49.246;9.100;2023-03-11T12:15:48;6.20;99.90
14119;DHT22;7138;49.246;9.100;2023-03-11T12:18:21;7.30;99.90
14119;DHT22;7138;49.246;9.100;2023-03-11T12:20:53;8.00;99.90
14119;DHT22;7138;49.246;9.100;2023-03-11T12:23:28;8.00;99.90
14119;DHT22;7138;49.246;9.100;2023-03-11T12:26:17;7.00;99.90
14119;DHT22;7138;49.246;9.100;2023-03-11T12:28:51;6.30;99.90
14119;DHT22;7138;49.246;9.100;2023-03-11T12:31:20;5.60;99.90
14119;DHT22;7138;49.246;9.100;2023-03-11T12:33:53;5.50;99.90
14119;DHT22;7138;49.246;9.100;2023-03-11T12:36:23;5.40;99.90
14119;DHT22;7138;49.246;9.100;2023-03-11T12:38:53;5.50;99.90
14119;DHT22;7138;49.246;9.100;2023-03-11T12:41:32;5.60;99.90
14119;DHT22;7138;49.246;9.100;2023-03-11T12:44:19;5.60;99.90
14119;DHT22;7138;49.246;9.100;2023-03-11T12:47:02;5.40;99.90
14119;DHT22;7138;49.246;9.100;2023-03-11T12:49:43;5.30;99.90
14119;DHT22;7138;49.246;9.100;2023-03-11T12:52:22;5.30;99.90
14119;DHT22;7138;49.246;9.100;2023-03-11T12:58:32;5.50;99.90
14119;DHT22;7138;49.246;9.100;2023-03-11T13:01:41;6.80;99.90
14119;DHT22;7138;49.246;9.100;2023-03-11T13:04:39;6.40;99.90
14119;DHT22;7138;49.246;9.100;2023-03-11T13:07:39;5.90;99.90
14119;DHT22;7138;49.246;9.100;2023-03-11T13:10:14;5.70;99.90
14119;DHT22;7138;49.246;9.100;2023-03-11T13:12:43;5.20;99.90
14119;DHT22;7138;49.246;9.100;2023-03-11T13:15:36;5.10;99.90
14119;DHT22;7138;49.246;9.100;2023-03-11T13:18:13;5.30;99.90
14119;DHT22;7138;49.246;9.100;2023-03-11T13:20:43;5.90;99.90
14119;DHT22;7138;49.246;9.100;2023-03-11T13:23:22;6.90;99.90
14119;DHT22;7138;49.246;9.100;2023-03-11T13:26:13;7.60;99.90
14119;DHT22;7138;49.246;9.100;2023-03-11T13:32:11;7.20;99.90
14119;DHT22;7138;49.246;9.100;2023-03-11T13:34:57;6.90;99.90
14119;DHT22;7138;49.246;9.100;2023-03-11T13:37:41;6.90;99.90
14119;DHT22;7138;49.246;9.100;2023-03-11T13:40:29;5.90;98.30
14119;DHT22;7138;49.246;9.100;2023-03-11T13:43:01;6.40;98.20
14119;DHT22;7138;49.246;9.100;2023-03-11T13:45:30;6.90;99.70
14119;DHT22;7138;49.246;9.100;2023-03-11T13:48:06;6.60;97.80
14119;DHT22;7138;49.246;9.100;2023-03-11T13:50:42;7.20;99.30
14119;DHT22;7138;49.246;9.100;2023-03-11T13:53:16;7.40;98.10
14119;DHT22;7138;49.246;9.100;2023-03-11T13:55:46;7.40;98.80
14119;DHT22;7138;49.246;9.100;2023-03-11T13:58:15;7.00;97.50
14119;DHT22;7138;49.246;9.100;2023-03-11T14:00:48;6.80;98.40
14119;DHT22;7138;49.246;9.100;2023-03-11T14:03:18;6.90;98.50
14119;DHT22;7138;49.246;9.100;2023-03-11T14:05:49;6.60;99.40
14119;DHT22;7138;49.246;9.100;2023-03-11T14:08:22;6.70;98.00
14119;DHT22;7138;49.246;9.100;2023-03-11T14:10:52;6.00;97.10
14119;DHT22;7138;49.246;9.100;2023-03-11T14:13:20;5.50;97.20
14119;DHT22;7138;49.246;9.100;2023-03-11T14:15:51;6.10;97.10
14119;DHT22;7138;49.246;9.100;2023-03-11T14:18:35;6.30;99.30
14119;DHT22;7138;49.246;9.100;2023-03-11T14:21:03;6.60;99.00
14119;DHT22;7138;49.246;9.100;2023-03-11T14:23:34;6.50;99.10
14119;DHT22;7138;49.246;9.100;2023-03-11T14:26:06;6.30;97.80
14119;DHT22;7138;49.246;9.100;2023-03-11T14:28:39;6.50;99.90
14119;DHT22;7138;49.246;9.100;2023-03-11T14:31:20;6.50;97.80
14119;DHT22;7138;49.246;9.100;2023-03-11T14:33:58;6.80;99.90
14119;DHT22;7138;49.246;9.100;2023-03-11T14:36:29;6.70;97.50
14119;DHT22;7138;49.246;9.100;2023-03-11T14:38:57;6.30;97.80
14119;DHT22;7138;49.246;9.100;2023-03-11T14:41:23;6.10;97.80
14119;DHT22;7138;49.246;9.100;2023-03-11T14:43:51;5.90;97.60
14119;DHT22;7138;49.246;9.100;2023-03-11T14:46:21;5.70;97.20
14119;DHT22;7138;49.246;9.100;2023-03-11T14:48:52;5.40;96.70
14119;DHT22;7138;49.246;9.100;2023-03-11T14:51:22;5.70;98.50
14119;DHT22;7138;49.246;9.100;2023-03-11T14:54:01;5.90;97.70
14119;DHT22;7138;49.246;9.100;2023-03-11T14:56:36;6.00;97.10
14119;DHT22;7138;49.246;9.100;2023-03-11T14:59:10;5.90;97.00
14119;DHT22;7138;49.246;9.100;2023-03-11T15:01:44;5.80;95.70
14119;DHT22;7138;49.246;9.100;2023-03-11T15:04:15;5.90;97.10
14119;DHT22;7138;49.246;9.100;2023-03-11T15:06:54;6.00;98.50
14119;DHT22;7138;49.246;9.100;2023-03-11T15:09:22;5.60;96.30
14119;DHT22;7138;49.246;9.100;2023-03-11T15:11:50;5.40;96.00
14119;DHT22;7138;49.246;9.100;2023-03-11T15:14:22;5.30;95.40
14119;DHT22;7138;49.246;9.100;2023-03-11T15:16:51;5.30;95.40
14119;DHT22;7138;49.246;9.100;2023-03-11T15:19:32;5.60;95.00
14119;DHT22;7138;49.246;9.100;2023-03-11T15:22:22;5.40;96.20
14119;DHT22;7138;49.246;9.100;2023-03-11T15:24:51;5.20;96.10
14119;DHT22;7138;49.246;9.100;2023-03-11T15:27:27;5.10;96.20
14119;DHT22;7138;49.246;9.100;2023-03-11T15:29:56;5.00;94.80
14119;DHT22;7138;49.246;9.100;2023-03-11T15:32:25;5.00;95.30
14119;DHT22;7138;49.246;9.100;2023-03-11T15:35:11;5.00;95.80
14119;DHT22;7138;49.246;9.100;2023-03-11T15:37:42;4.80;94.70
14119;DHT22;7138;49.246;9.100;2023-03-11T15:40:11;4.80;95.10
14119;DHT22;7138;49.246;9.100;2023-03-11T15:42:43;5.00;96.60
14119;DHT22;7138;49.246;9.100;2023-03-11T15:45:15;5.10;98.50
14119;DHT22;7138;49.246;9.100;2023-03-11T15:47:43;5.00;96.30
14119;DHT22;7138;49.246;9.100;2023-03-11T15:50:16;4.90;96.70
14119;DHT22;7138;49.246;9.100;2023-03-11T15:52:46;4.90;97.40
14119;DHT22;7138;49.246;9.100;2023-03-11T15:55:13;5.20;97.20
14119;DHT22;7138;49.246;9.100;2023-03-11T15:57:39;5.30;97.70
14119;DHT22;7138;49.246;9.100;2023-03-11T16:00:14;5.10;97.20
14119;DHT22;7138;49.246;9.100;2023-03-11T16:02:43;5.00;96.50
14119;DHT22;7138;49.246;9.100;2023-03-11T16:05:14;5.00;98.00
14119;DHT22;7138;49.246;9.100;2023-03-11T16:07:42;5.00;97.10
14119;DHT22;7138;49.246;9.100;2023-03-11T16:10:10;4.80;97.10
14119;DHT22;7138;49.246;9.100;2023-03-11T16:12:36;4.70;96.60
14119;DHT22;7138;49.246;9.100;2023-03-11T16:15:03;4.70;98.10
14119;DHT22;7138;49.246;9.100;2023-03-11T16:17:30;4.60;97.10
14119;DHT22;7138;49.246;9.100;2023-03-11T16:19:56;4.50;96.90
14119;DHT22;7138;49.246;9.100;2023-03-11T16:22:30;4.50;97.70
14119;DHT22;7138;49.246;9.100;2023-03-11T16:24:59;4.60;97.50